createdAt,value
2022-09-23T00:01:59.253Z,5.22
2022-09-23T00:04:47.075Z,4.88
2022-09-23T00:07:34.559Z,7.05
2022-09-23T00:10:23.285Z,8.07
2022-09-23T00:13:10.750Z,6.47
2022-09-23T00:15:57.807Z,6.65
2022-09-23T00:18:45.002Z,4.90
2022-09-23T00:21:32.380Z,5.30
2022-09-23T00:24:19.704Z,5.07
2022-09-23T00:27:06.842Z,5.68
2022-09-23T00:29:53.930Z,5.18
2022-09-23T00:32:41.038Z,7.60
2022-09-23T00:35:28.114Z,6.20
2022-09-23T00:38:15.186Z,10.85
2022-09-23T00:41:03.737Z,9.30
2022-09-23T00:43:53.638Z,8.18
2022-09-23T00:46:43.597Z,7.15
2022-09-23T00:49:31.173Z,8.48
2022-09-23T00:52:23.143Z,6.13
2022-09-23T00:55:16.718Z,5.95
2022-09-23T00:58:07.422Z,7.38
2022-09-23T01:00:54.823Z,7.10
2022-09-23T01:03:44.617Z,8.73
2022-09-23T01:06:31.881Z,5.93
2022-09-23T01:09:20.247Z,8.38
2022-09-23T01:12:29.764Z,7.55
2022-09-23T01:15:33.398Z,6.75
2022-09-23T01:19:03.136Z,5.82
2022-09-23T01:22:08.465Z,5.90
2022-09-23T01:25:05.702Z,6.65
2022-09-23T01:28:01.337Z,6.80
2022-09-23T01:30:58.330Z,6.30
2022-09-23T01:34:12.571Z,6.35
2022-09-23T01:37:33.448Z,6.35
2022-09-23T01:40:20.916Z,9.75
2022-09-23T01:43:15.668Z,7.35
2022-09-23T01:46:09.229Z,5.45
2022-09-23T01:49:04.988Z,6.28
2022-09-23T01:52:19.454Z,7.93
2022-09-23T01:55:24.742Z,6.30
2022-09-23T01:58:29.148Z,7.53
2022-09-23T02:01:23.387Z,8.80
2022-09-23T02:04:17.462Z,5.88
2022-09-23T02:07:10.721Z,6.10
2022-09-23T02:10:04.932Z,5.32
2022-09-23T02:12:59.307Z,8.70
2022-09-23T02:15:56.536Z,6.95
2022-09-23T02:18:52.127Z,7.85
2022-09-23T02:21:44.532Z,5.85
2022-09-23T02:24:34.766Z,8.52
2022-09-23T02:27:40.791Z,5.78
2022-09-23T02:30:38.910Z,6.35
2022-09-23T02:33:37.046Z,6.32
2022-09-23T02:36:53.643Z,6.65
2022-09-23T02:40:12.727Z,5.95
2022-09-23T02:43:12.416Z,7.55
2022-09-23T02:46:00.662Z,6.18
2022-09-23T02:48:56.813Z,8.85
2022-09-23T02:51:45.704Z,8.07
2022-09-23T02:54:33.666Z,8.02
2022-09-23T02:57:21.291Z,7.00
2022-09-23T03:00:09.032Z,9.73
2022-09-23T03:03:21.670Z,7.30
2022-09-23T03:06:22.403Z,7.75
2022-09-23T03:09:19.900Z,10.00
2022-09-23T03:12:16.529Z,8.50
2022-09-23T03:15:19.165Z,8.02
2022-09-23T03:18:21.400Z,8.07
2022-09-23T03:21:41.109Z,7.50
2022-09-23T03:24:32.112Z,6.82
2022-09-23T03:27:23.450Z,6.72
2022-09-23T03:33:00.279Z,7.70
2022-09-23T03:36:33.910Z,8.57
2022-09-23T03:39:32.535Z,8.05
2022-09-23T03:42:26.012Z,8.00
2022-09-23T03:45:19.071Z,6.70
2022-09-23T03:48:07.129Z,9.00
2022-09-23T03:50:54.263Z,8.40
2022-09-23T03:53:41.375Z,8.10
2022-09-23T03:56:28.434Z,7.63
2022-09-23T03:59:16.443Z,10.82
2022-09-23T04:02:07.344Z,7.22
2022-09-23T04:04:54.796Z,7.25
2022-09-23T04:07:42.472Z,8.48
2022-09-23T04:10:29.525Z,9.00
2022-09-23T04:13:17.393Z,7.85
2022-09-23T04:16:04.662Z,5.85
2022-09-23T04:18:51.849Z,6.13
2022-09-23T04:21:39.726Z,4.97
2022-09-23T04:24:26.937Z,5.43
2022-09-23T04:27:14.246Z,5.00
2022-09-23T04:30:01.325Z,5.57
2022-09-23T04:32:48.440Z,8.02
2022-09-23T04:35:39.922Z,4.80
2022-09-23T04:38:27.391Z,6.85
2022-09-23T04:41:15.241Z,3.97
2022-09-23T04:44:02.392Z,6.28
2022-09-23T04:46:49.688Z,5.13
2022-09-23T04:49:36.797Z,4.80
2022-09-23T04:52:23.949Z,5.82
2022-09-23T04:55:11.422Z,6.82
2022-09-23T04:57:58.821Z,5.38
2022-09-23T05:00:46.540Z,8.07
2022-09-23T05:03:35.337Z,10.80
2022-09-23T05:06:22.639Z,6.35
2022-09-23T05:09:13.729Z,7.13
2022-09-23T05:12:01.114Z,5.45
2022-09-23T05:14:48.751Z,5.90
2022-09-23T05:17:37.326Z,8.73
2022-09-23T05:20:24.591Z,9.52
2022-09-23T05:23:11.641Z,7.47
2022-09-23T05:26:00.887Z,9.63
2022-09-23T05:28:48.336Z,7.97
2022-09-23T05:31:35.617Z,9.43
2022-09-23T05:34:23.175Z,7.40
2022-09-23T05:37:10.635Z,9.32
2022-09-23T05:39:57.753Z,7.40
2022-09-23T05:42:44.991Z,7.47
2022-09-23T05:45:32.220Z,12.27
2022-09-23T05:48:19.323Z,8.73
2022-09-23T05:51:12.868Z,9.10
2022-09-23T05:54:03.936Z,6.45
2022-09-23T05:56:51.140Z,5.50
2022-09-23T05:59:38.342Z,5.50
2022-09-23T06:02:25.482Z,6.43
2022-09-23T06:05:13.561Z,5.13
2022-09-23T06:08:01.130Z,4.80
2022-09-23T06:10:53.599Z,3.83
2022-09-23T06:13:42.116Z,5.25
2022-09-23T06:16:31.546Z,5.65
2022-09-23T06:19:18.762Z,4.00
2022-09-23T06:22:05.900Z,4.82
2022-09-23T06:24:52.986Z,4.07
2022-09-23T06:27:40.091Z,3.67
2022-09-23T06:30:28.281Z,3.15
2022-09-23T06:33:15.785Z,5.63
2022-09-23T06:36:07.764Z,3.60
2022-09-23T06:38:54.847Z,5.10
2022-09-23T06:41:43.305Z,4.20
2022-09-23T06:44:32.753Z,4.07
2022-09-23T06:47:20.016Z,4.25
2022-09-23T06:50:08.101Z,2.38
2022-09-23T06:52:56.282Z,4.95
2022-09-23T06:55:44.427Z,3.00
2022-09-23T06:58:33.665Z,2.47
2022-09-23T07:01:22.394Z,3.17
2022-09-23T07:04:10.701Z,3.80
2022-09-23T07:06:58.184Z,2.38
2022-09-23T07:09:45.853Z,4.10
2022-09-23T07:12:33.539Z,2.50
2022-09-23T07:15:20.732Z,4.18
2022-09-23T07:18:07.934Z,3.65
2022-09-23T07:20:58.775Z,3.08
2022-09-23T07:23:48.242Z,3.35
2022-09-23T07:26:35.349Z,2.78
2022-09-23T07:29:22.672Z,2.85
2022-09-23T07:32:14.062Z,2.80
2022-09-23T07:35:01.577Z,3.28
2022-09-23T07:37:50.480Z,3.08
2022-09-23T07:40:39.590Z,2.67
2022-09-23T07:43:29.077Z,2.70
2022-09-23T07:46:17.707Z,3.17
2022-09-23T07:49:05.803Z,3.35
2022-09-23T07:51:53.488Z,2.03
2022-09-23T07:54:40.581Z,5.28
2022-09-23T07:57:27.715Z,2.15
2022-09-23T08:00:14.902Z,1.98
2022-09-23T08:03:02.831Z,3.38
2022-09-23T08:05:50.798Z,2.05
2022-09-23T08:08:40.475Z,2.20
2022-09-23T08:11:28.223Z,2.30
2022-09-23T08:14:17.968Z,2.28
2022-09-23T08:17:05.987Z,2.38
2022-09-23T08:19:53.157Z,2.40
2022-09-23T08:22:40.544Z,1.98
2022-09-23T08:25:27.966Z,2.75
2022-09-23T08:28:18.465Z,1.98
2022-09-23T08:31:05.921Z,2.90
2022-09-23T08:33:57.953Z,2.38
2022-09-23T08:36:45.574Z,4.28
2022-09-23T08:39:32.714Z,2.63
2022-09-23T08:42:29.280Z,4.50
2022-09-23T08:45:26.966Z,1.85
2022-09-23T08:48:17.394Z,2.97
2022-09-23T08:51:07.364Z,2.80
2022-09-23T08:53:54.512Z,3.30
2022-09-23T08:56:44.475Z,4.40
2022-09-23T08:59:43.814Z,3.38
2022-09-23T09:02:34.278Z,2.90
2022-09-23T09:05:30.825Z,2.92
2022-09-23T09:08:25.014Z,2.42
2022-09-23T09:11:15.812Z,3.53
2022-09-23T09:17:10.279Z,2.97
2022-09-23T09:20:23.104Z,2.45
2022-09-23T09:23:23.880Z,2.72
2022-09-23T09:26:31.572Z,3.85
2022-09-23T09:29:39.177Z,2.17
2022-09-23T09:32:52.378Z,2.63
2022-09-23T09:35:59.584Z,2.08
2022-09-23T09:38:51.110Z,1.95
2022-09-23T09:41:41.875Z,3.25
2022-09-23T09:45:00.534Z,3.55
2022-09-23T09:48:03.477Z,3.78
2022-09-23T09:50:53.095Z,3.75
2022-09-23T09:53:40.353Z,2.63
2022-09-23T09:56:34.404Z,2.50
2022-09-23T09:59:27.518Z,3.22
2022-09-23T10:02:45.592Z,2.20
2022-09-23T11:05:26.646Z,4.30
2022-09-23T11:08:51.006Z,3.72
2022-09-23T11:11:47.920Z,2.17
2022-09-23T11:15:57.614Z,4.68
2022-09-23T11:19:45.934Z,4.72
2022-09-23T11:23:07.996Z,3.13
2022-09-23T11:26:20.494Z,3.38
2022-09-23T11:29:43.235Z,3.10
2022-09-23T11:33:04.687Z,4.53
2022-09-23T11:36:24.583Z,4.22
2022-09-23T11:43:10.684Z,3.75
2022-09-23T11:46:05.326Z,3.63
2022-09-23T11:49:03.914Z,3.92
2022-09-23T11:52:12.119Z,5.95
2022-09-23T11:55:28.204Z,3.75
2022-09-23T11:58:28.068Z,3.92
2022-09-23T12:01:37.869Z,4.57
2022-09-23T12:04:57.798Z,5.03
2022-09-23T12:08:03.038Z,5.17
2022-09-23T12:11:06.022Z,4.22
2022-09-23T12:14:47.333Z,4.43
2022-09-23T12:17:54.435Z,4.30
2022-09-23T12:21:33.070Z,3.15
2022-09-23T12:24:45.642Z,5.32
2022-09-23T12:27:36.891Z,6.07
2022-09-23T12:30:30.597Z,3.88
2022-09-23T12:33:27.647Z,4.47
2022-09-23T12:36:14.828Z,6.00
2022-09-23T12:39:07.839Z,3.70
2022-09-23T12:42:04.191Z,2.78
2022-09-23T12:44:52.083Z,4.75
2022-09-23T12:47:40.071Z,5.90
2022-09-23T12:50:53.490Z,6.93
2022-09-23T12:53:54.435Z,4.05
2022-09-23T12:56:42.445Z,3.28
2022-09-23T12:59:31.874Z,4.63
2022-09-23T13:02:41.070Z,3.50
2022-09-23T13:05:47.324Z,5.47
2022-09-23T13:08:39.026Z,4.40
2022-09-23T13:11:30.076Z,5.55
2022-09-23T13:14:25.244Z,4.57
2022-09-23T13:17:37.236Z,5.10
2022-09-23T13:20:38.220Z,4.85
2022-09-23T13:23:31.345Z,3.83
2022-09-23T13:26:18.465Z,5.45
2022-09-23T13:29:06.989Z,3.45
2022-09-23T13:31:57.890Z,4.03
2022-09-23T13:35:05.387Z,5.15
2022-09-23T13:37:53.498Z,7.65
2022-09-23T13:40:44.987Z,4.75
2022-09-23T13:43:41.402Z,5.25
2022-09-23T13:46:38.241Z,5.25
2022-09-23T13:49:28.395Z,6.43
2022-09-23T13:52:33.721Z,4.70
2022-09-23T13:55:33.220Z,5.97
2022-09-23T13:58:23.909Z,3.72
2022-09-23T14:01:32.267Z,6.15
2022-09-23T14:04:24.916Z,5.53
2022-09-23T14:07:18.919Z,5.65
2022-09-23T14:10:08.105Z,5.03
2022-09-23T14:12:56.448Z,5.53
2022-09-23T14:15:44.812Z,8.07
2022-09-23T14:18:39.563Z,3.33
2022-09-23T14:21:38.454Z,6.25
2022-09-23T14:24:36.986Z,3.95
2022-09-23T14:27:29.988Z,5.78
2022-09-23T14:30:18.566Z,6.38
2022-09-23T14:33:30.682Z,5.10
2022-09-23T14:36:37.457Z,4.50
2022-09-23T14:39:25.475Z,7.45
2022-09-23T14:42:13.406Z,6.30
2022-09-23T14:45:00.526Z,9.80
2022-09-23T14:47:54.178Z,18.38
2022-09-23T14:50:56.787Z,7.30
2022-09-23T14:53:46.498Z,5.82
2022-09-23T14:56:41.827Z,7.80
2022-09-23T14:59:33.826Z,9.98
2022-09-23T15:02:35.223Z,6.82
2022-09-23T15:05:30.285Z,9.10
2022-09-23T15:08:23.739Z,6.22
2022-09-23T15:11:11.484Z,6.53
2022-09-23T15:14:09.475Z,6.90
2022-09-23T15:17:13.266Z,6.93
2022-09-23T15:20:06.927Z,6.68
2022-09-23T15:22:55.823Z,5.55
2022-09-23T15:25:43.053Z,6.85
2022-09-23T15:28:30.211Z,7.40
2022-09-23T15:31:19.241Z,6.03
2022-09-23T15:34:06.510Z,8.23
2022-09-23T15:36:54.307Z,5.68
2022-09-23T15:39:41.424Z,6.72
2022-09-23T15:42:29.565Z,7.07
2022-09-23T15:45:17.609Z,6.45
2022-09-23T15:48:08.524Z,9.73
2022-09-23T15:53:42.832Z,6.43
2022-09-23T15:56:30.052Z,8.90
2022-09-23T15:59:17.227Z,11.73
2022-09-23T16:02:14.720Z,42.90
2022-09-23T16:05:06.436Z,15.25
2022-09-23T16:07:53.584Z,7.97
2022-09-23T16:10:41.297Z,13.45
2022-09-23T16:13:28.478Z,10.60
2022-09-23T16:16:16.099Z,7.18
2022-09-23T16:19:03.359Z,9.38
2022-09-23T16:21:50.709Z,6.38
2022-09-23T16:24:37.994Z,5.45
2022-09-23T16:27:26.009Z,4.55
2022-09-23T16:30:13.369Z,4.68
2022-09-23T16:33:01.852Z,6.50
2022-09-23T16:35:50.059Z,4.38
2022-09-23T16:38:37.161Z,4.65
2022-09-23T16:41:25.937Z,4.18
2022-09-23T16:44:14.551Z,4.93
2022-09-23T16:47:01.683Z,4.28
2022-09-23T16:49:49.061Z,4.57
2022-09-23T16:52:36.340Z,6.15
2022-09-23T16:55:27.222Z,5.25
2022-09-23T17:01:20.551Z,6.68
2022-09-23T17:04:08.733Z,5.65
2022-09-23T17:06:56.431Z,5.38
2022-09-23T17:09:43.636Z,7.75
2022-09-23T17:12:35.033Z,6.22
2022-09-23T17:15:22.556Z,4.75
2022-09-23T17:18:09.772Z,5.53
2022-09-23T17:21:05.154Z,9.90
2022-09-23T17:23:57.518Z,6.38
2022-09-23T17:26:52.014Z,5.50
2022-09-23T17:29:39.310Z,7.03
2022-09-23T17:32:26.927Z,7.57
2022-09-23T17:35:14.095Z,11.65
2022-09-23T17:38:01.245Z,6.20
2022-09-23T17:40:54.998Z,7.00
2022-09-23T17:43:42.489Z,6.10
2022-09-23T17:46:30.152Z,6.40
2022-09-23T17:49:18.128Z,6.55
2022-09-23T17:52:05.698Z,5.63
2022-09-23T17:54:54.964Z,4.95
2022-09-23T17:57:42.172Z,7.25
2022-09-23T18:00:29.404Z,5.60
2022-09-23T18:03:16.608Z,4.63
2022-09-23T18:06:18.269Z,7.55
2022-09-23T18:09:07.670Z,10.90
2022-09-23T18:11:54.972Z,8.82
2022-09-23T18:14:42.202Z,5.75
2022-09-23T18:17:29.288Z,4.97
2022-09-23T18:20:16.967Z,7.40
2022-09-23T18:23:04.445Z,10.13
2022-09-23T18:25:51.565Z,4.47
2022-09-23T18:28:39.716Z,13.50
2022-09-23T18:31:34.240Z,7.10
2022-09-23T18:34:21.720Z,5.35
2022-09-23T18:37:15.835Z,6.47
2022-09-23T18:40:05.509Z,7.68
2022-09-23T18:42:52.630Z,9.55
2022-09-23T18:45:39.781Z,3.92
2022-09-23T18:48:47.126Z,4.05
2022-09-23T18:51:38.288Z,5.57
2022-09-23T18:57:14.653Z,6.07
2022-09-23T19:00:02.217Z,5.47
2022-09-23T19:02:49.308Z,6.32
2022-09-23T19:05:37.906Z,4.55
2022-09-23T19:08:25.293Z,6.43
2022-09-23T19:11:13.801Z,5.32
2022-09-23T19:14:01.433Z,4.00
2022-09-23T19:16:51.619Z,6.13
2022-09-23T19:19:39.112Z,4.47
2022-09-23T19:22:26.305Z,4.80
2022-09-23T19:25:13.761Z,6.03
2022-09-23T19:28:01.180Z,4.80
2022-09-23T19:30:48.289Z,5.10
2022-09-23T19:33:35.958Z,6.50
2022-09-23T19:36:26.045Z,5.05
2022-09-23T19:39:21.058Z,5.40
2022-09-23T19:42:08.282Z,5.68
2022-09-23T19:44:55.582Z,5.72
2022-09-23T19:47:42.850Z,4.75
2022-09-23T19:50:34.545Z,5.40
2022-09-23T19:53:24.850Z,11.13
2022-09-23T19:56:18.064Z,17.33
2022-09-23T19:59:07.264Z,15.60
2022-09-23T20:01:55.042Z,13.13
2022-09-23T20:04:42.306Z,11.45
2022-09-23T20:07:29.549Z,7.88
2022-09-23T20:10:17.273Z,7.38
2022-09-23T20:13:04.571Z,6.78
2022-09-23T20:15:52.340Z,6.45
2022-09-23T20:18:39.762Z,5.50
2022-09-23T20:21:28.363Z,7.18
2022-09-23T20:24:15.529Z,4.93
2022-09-23T20:27:09.139Z,5.70
2022-09-23T20:29:57.127Z,6.47
2022-09-23T20:32:44.975Z,5.13
2022-09-23T20:35:33.219Z,9.30
2022-09-23T20:38:20.405Z,13.50
2022-09-23T20:41:09.301Z,23.08
2022-09-23T20:43:59.389Z,21.55
2022-09-23T20:46:48.857Z,33.47
2022-09-23T20:49:36.507Z,14.80
2022-09-23T20:52:23.669Z,15.30
2022-09-23T20:55:10.763Z,17.33
2022-09-23T20:57:57.846Z,26.83
2022-09-23T21:00:45.575Z,15.90
2022-09-23T21:03:33.092Z,16.48
2022-09-23T21:06:22.920Z,10.98
2022-09-23T21:09:10.120Z,12.10
2022-09-23T21:11:57.572Z,9.75
2022-09-23T21:14:44.643Z,8.90
2022-09-23T21:17:31.823Z,9.85
2022-09-23T21:20:19.207Z,6.63
2022-09-23T21:23:06.355Z,7.88
2022-09-23T21:26:02.900Z,6.25
2022-09-23T21:28:52.233Z,7.55
2022-09-23T21:31:40.062Z,6.15
2022-09-23T21:34:28.267Z,6.50
2022-09-23T21:37:15.389Z,8.55
2022-09-23T21:40:21.156Z,8.38
2022-09-23T21:43:08.321Z,7.50
2022-09-23T21:46:00.101Z,10.98
2022-09-23T21:48:53.293Z,8.05
2022-09-23T21:51:41.539Z,10.07
2022-09-23T21:54:29.560Z,7.30
2022-09-23T21:57:16.670Z,10.32
2022-09-23T22:00:06.296Z,5.07
2022-09-23T22:02:53.384Z,7.60
2022-09-23T22:05:43.175Z,6.85
2022-09-23T22:08:38.563Z,6.20
2022-09-23T22:11:47.100Z,6.85
2022-09-23T22:14:34.717Z,6.32
2022-09-23T22:17:23.000Z,5.18
2022-09-23T22:20:10.284Z,6.80
2022-09-23T22:22:57.360Z,6.07
2022-09-23T22:25:44.477Z,6.32
2022-09-23T22:28:51.124Z,5.38
2022-09-23T22:31:56.907Z,4.63
2022-09-23T22:34:49.937Z,4.15
2022-09-23T22:37:38.133Z,6.43
2022-09-23T22:40:25.212Z,6.00
2022-09-23T22:43:12.400Z,5.43
2022-09-23T22:45:59.963Z,6.70
2022-09-23T22:48:47.161Z,5.93
2022-09-23T22:51:34.248Z,7.68
2022-09-23T22:54:22.154Z,6.25
2022-09-23T22:57:09.776Z,6.88
2022-09-23T22:59:56.811Z,5.03
2022-09-23T23:02:43.935Z,7.25
2022-09-23T23:05:31.306Z,6.53
2022-09-23T23:08:19.278Z,5.55
2022-09-23T23:11:11.357Z,6.45
2022-09-23T23:14:02.279Z,5.35
2022-09-23T23:16:49.586Z,5.13
2022-09-23T23:19:37.262Z,6.57
2022-09-23T23:22:27.216Z,4.57
2022-09-23T23:25:14.409Z,8.02
2022-09-23T23:28:01.822Z,4.43
2022-09-23T23:30:48.902Z,5.57
2022-09-23T23:33:36.610Z,5.70
2022-09-23T23:36:23.730Z,4.40
2022-09-23T23:39:11.799Z,4.10
2022-09-23T23:41:58.939Z,5.57
2022-09-23T23:44:46.231Z,4.43
2022-09-23T23:47:33.673Z,5.03
2022-09-23T23:50:20.804Z,6.72
2022-09-23T23:53:10.825Z,4.65
2022-09-23T23:56:00.667Z,5.20
2022-09-23T23:58:48.036Z,7.57
